sensor_id;sensor_type;location;lat;lon;timestamp;P1;durP1;ratioP1;P2;durP2;ratioP2
64543;SDS011;50936;51.660;5.616;2023-02-04T00:00:12;15.93;;;3.60;;
64543;SDS011;50936;51.660;5.616;2023-02-04T00:02:43;16.98;;;2.58;;
64543;SDS011;50936;51.660;5.616;2023-02-04T00:05:10;18.05;;;2.65;;
64543;SDS011;50936;51.660;5.616;2023-02-04T00:07:38;16.25;;;3.50;;
64543;SDS011;50936;51.660;5.616;2023-02-04T00:10:07;13.65;;;2.63;;
64543;SDS011;50936;51.660;5.616;2023-02-04T00:12:35;14.65;;;2.55;;
64543;SDS011;50936;51.660;5.616;2023-02-04T00:15:02;17.45;;;2.58;;
64543;SDS011;50936;51.660;5.616;2023-02-04T00:17:30;22.17;;;2.85;;
64543;SDS011;50936;51.660;5.616;2023-02-04T00:19:57;12.80;;;2.47;;
64543;SDS011;50936;51.660;5.616;2023-02-04T00:22:24;13.27;;;2.53;;
64543;SDS011;50936;51.660;5.616;2023-02-04T00:24:53;7.47;;;2.83;;
64543;SDS011;50936;51.660;5.616;2023-02-04T00:27:20;18.92;;;2.35;;
64543;SDS011;50936;51.660;5.616;2023-02-04T00:29:47;17.17;;;2.20;;
64543;SDS011;50936;51.660;5.616;2023-02-04T00:32:14;12.45;;;1.77;;
64543;SDS011;50936;51.660;5.616;2023-02-04T00:34:41;15.40;;;2.28;;
64543;SDS011;50936;51.660;5.616;2023-02-04T00:37:08;19.50;;;3.03;;
64543;SDS011;50936;51.660;5.616;2023-02-04T00:39:36;13.48;;;3.47;;
64543;SDS011;50936;51.660;5.616;2023-02-04T00:42:04;22.23;;;3.45;;
64543;SDS011;50936;51.660;5.616;2023-02-04T00:44:34;13.43;;;2.65;;
64543;SDS011;50936;51.660;5.616;2023-02-04T00:47:02;15.88;;;2.47;;
64543;SDS011;50936;51.660;5.616;2023-02-04T00:49:30;18.67;;;2.70;;
64543;SDS011;50936;51.660;5.616;2023-02-04T00:51:59;13.00;;;2.83;;
64543;SDS011;50936;51.660;5.616;2023-02-04T00:54:26;10.57;;;2.22;;
64543;SDS011;50936;51.660;5.616;2023-02-04T00:56:54;13.00;;;2.17;;
64543;SDS011;50936;51.660;5.616;2023-02-04T00:59:21;14.63;;;3.10;;
64543;SDS011;50936;51.660;5.616;2023-02-04T01:01:48;13.88;;;2.05;;
64543;SDS011;50936;51.660;5.616;2023-02-04T01:04:15;22.27;;;3.05;;
64543;SDS011;50936;51.660;5.616;2023-02-04T01:06:42;19.27;;;2.97;;
64543;SDS011;50936;51.660;5.616;2023-02-04T01:09:09;20.48;;;3.60;;
64543;SDS011;50936;51.660;5.616;2023-02-04T01:11:37;18.83;;;2.90;;
64543;SDS011;50936;51.660;5.616;2023-02-04T01:14:04;16.17;;;2.30;;
64543;SDS011;50936;51.660;5.616;2023-02-04T01:16:31;11.25;;;2.08;;
64543;SDS011;50936;51.660;5.616;2023-02-04T01:18:59;18.23;;;2.70;;
64543;SDS011;50936;51.660;5.616;2023-02-04T01:21:26;14.85;;;2.90;;
64543;SDS011;50936;51.660;5.616;2023-02-04T01:23:52;17.80;;;3.35;;
64543;SDS011;50936;51.660;5.616;2023-02-04T01:26:19;18.63;;;3.55;;
64543;SDS011;50936;51.660;5.616;2023-02-04T01:28:47;17.08;;;2.85;;
64543;SDS011;50936;51.660;5.616;2023-02-04T01:31:15;24.13;;;3.42;;
64543;SDS011;50936;51.660;5.616;2023-02-04T01:33:42;17.50;;;3.30;;
64543;SDS011;50936;51.660;5.616;2023-02-04T01:36:10;17.33;;;3.53;;
64543;SDS011;50936;51.660;5.616;2023-02-04T01:38:37;16.10;;;2.88;;
64543;SDS011;50936;51.660;5.616;2023-02-04T01:41:05;11.48;;;2.78;;
64543;SDS011;50936;51.660;5.616;2023-02-04T01:43:32;17.48;;;3.35;;
64543;SDS011;50936;51.660;5.616;2023-02-04T01:45:59;16.35;;;3.63;;
64543;SDS011;50936;51.660;5.616;2023-02-04T01:48:28;22.30;;;3.30;;
64543;SDS011;50936;51.660;5.616;2023-02-04T01:51:07;22.58;;;3.63;;
64543;SDS011;50936;51.660;5.616;2023-02-04T01:53:39;17.88;;;3.25;;
64543;SDS011;50936;51.660;5.616;2023-02-04T01:56:14;19.83;;;3.78;;
64543;SDS011;50936;51.660;5.616;2023-02-04T01:58:45;19.73;;;3.20;;
64543;SDS011;50936;51.660;5.616;2023-02-04T02:01:31;14.27;;;3.13;;
64543;SDS011;50936;51.660;5.616;2023-02-04T02:04:11;23.13;;;3.63;;
64543;SDS011;50936;51.660;5.616;2023-02-04T02:06:52;16.60;;;3.60;;
64543;SDS011;50936;51.660;5.616;2023-02-04T02:09:24;17.98;;;3.55;;
64543;SDS011;50936;51.660;5.616;2023-02-04T02:11:53;23.70;;;3.13;;
64543;SDS011;50936;51.660;5.616;2023-02-04T02:14:20;20.33;;;3.38;;
64543;SDS011;50936;51.660;5.616;2023-02-04T02:16:49;22.25;;;3.45;;
64543;SDS011;50936;51.660;5.616;2023-02-04T02:19:26;17.58;;;2.95;;
64543;SDS011;50936;51.660;5.616;2023-02-04T02:22:03;19.77;;;3.42;;
64543;SDS011;50936;51.660;5.616;2023-02-04T02:24:42;16.58;;;3.25;;
64543;SDS011;50936;51.660;5.616;2023-02-04T02:27:09;19.70;;;3.20;;
64543;SDS011;50936;51.660;5.616;2023-02-04T02:29:37;10.75;;;2.13;;
64543;SDS011;50936;51.660;5.616;2023-02-04T02:32:08;19.55;;;3.20;;
64543;SDS011;50936;51.660;5.616;2023-02-04T02:34:40;24.45;;;3.75;;
64543;SDS011;50936;51.660;5.616;2023-02-04T02:37:08;21.40;;;3.38;;
64543;SDS011;50936;51.660;5.616;2023-02-04T02:39:39;14.52;;;2.90;;
64543;SDS011;50936;51.660;5.616;2023-02-04T02:42:11;16.58;;;2.47;;
64543;SDS011;50936;51.660;5.616;2023-02-04T02:44:43;23.25;;;4.07;;
64543;SDS011;50936;51.660;5.616;2023-02-04T02:47:13;19.05;;;3.80;;
64543;SDS011;50936;51.660;5.616;2023-02-04T02:49:43;24.83;;;4.90;;
64543;SDS011;50936;51.660;5.616;2023-02-04T02:52:16;13.90;;;3.05;;
64543;SDS011;50936;51.660;5.616;2023-02-04T02:54:43;28.45;;;4.25;;
64543;SDS011;50936;51.660;5.616;2023-02-04T02:57:14;27.30;;;4.10;;
64543;SDS011;50936;51.660;5.616;2023-02-04T02:59:45;29.80;;;4.18;;
64543;SDS011;50936;51.660;5.616;2023-02-04T03:02:14;15.57;;;3.75;;
64543;SDS011;50936;51.660;5.616;2023-02-04T03:04:51;15.25;;;3.58;;
64543;SDS011;50936;51.660;5.616;2023-02-04T03:07:28;22.25;;;4.18;;
64543;SDS011;50936;51.660;5.616;2023-02-04T03:09:56;24.55;;;4.20;;
64543;SDS011;50936;51.660;5.616;2023-02-04T03:12:24;18.38;;;4.07;;
64543;SDS011;50936;51.660;5.616;2023-02-04T03:14:53;21.75;;;3.35;;
64543;SDS011;50936;51.660;5.616;2023-02-04T03:17:20;23.73;;;5.18;;
64543;SDS011;50936;51.660;5.616;2023-02-04T03:19:48;24.48;;;4.32;;
64543;SDS011;50936;51.660;5.616;2023-02-04T03:22:15;24.75;;;4.30;;
64543;SDS011;50936;51.660;5.616;2023-02-04T03:24:43;23.63;;;3.85;;
64543;SDS011;50936;51.660;5.616;2023-02-04T03:27:10;19.58;;;3.80;;
64543;SDS011;50936;51.660;5.616;2023-02-04T03:29:41;22.98;;;5.10;;
64543;SDS011;50936;51.660;5.616;2023-02-04T03:32:10;20.60;;;5.20;;
64543;SDS011;50936;51.660;5.616;2023-02-04T03:34:37;24.70;;;4.63;;
64543;SDS011;50936;51.660;5.616;2023-02-04T03:37:04;19.77;;;4.43;;
64543;SDS011;50936;51.660;5.616;2023-02-04T03:39:31;28.63;;;5.10;;
64543;SDS011;50936;51.660;5.616;2023-02-04T03:41:58;26.15;;;5.15;;
64543;SDS011;50936;51.660;5.616;2023-02-04T03:44:25;21.80;;;4.80;;
64543;SDS011;50936;51.660;5.616;2023-02-04T03:46:52;22.95;;;4.40;;
64543;SDS011;50936;51.660;5.616;2023-02-04T03:49:21;29.15;;;5.25;;
64543;SDS011;50936;51.660;5.616;2023-02-04T03:51:49;29.63;;;5.93;;
64543;SDS011;50936;51.660;5.616;2023-02-04T03:54:16;34.42;;;5.13;;
64543;SDS011;50936;51.660;5.616;2023-02-04T03:56:43;28.42;;;4.97;;
64543;SDS011;50936;51.660;5.616;2023-02-04T03:59:10;24.65;;;4.75;;
64543;SDS011;50936;51.660;5.616;2023-02-04T04:01:37;27.08;;;5.13;;
64543;SDS011;50936;51.660;5.616;2023-02-04T04:04:04;23.75;;;4.53;;
64543;SDS011;50936;51.660;5.616;2023-02-04T04:06:31;28.42;;;4.63;;
64543;SDS011;50936;51.660;5.616;2023-02-04T04:08:58;30.42;;;5.82;;
64543;SDS011;50936;51.660;5.616;2023-02-04T04:11:24;28.05;;;4.53;;
64543;SDS011;50936;51.660;5.616;2023-02-04T04:13:51;41.08;;;5.82;;
64543;SDS011;50936;51.660;5.616;2023-02-04T04:16:18;21.13;;;4.72;;
64543;SDS011;50936;51.660;5.616;2023-02-04T04:18:46;21.92;;;4.88;;
64543;SDS011;50936;51.660;5.616;2023-02-04T04:21:13;23.10;;;4.70;;
64543;SDS011;50936;51.660;5.616;2023-02-04T04:23:40;34.42;;;5.32;;
64543;SDS011;50936;51.660;5.616;2023-02-04T04:26:07;31.42;;;5.22;;
64543;SDS011;50936;51.660;5.616;2023-02-04T04:28:34;28.00;;;5.35;;
64543;SDS011;50936;51.660;5.616;2023-02-04T04:31:01;25.23;;;5.50;;
64543;SDS011;50936;51.660;5.616;2023-02-04T04:33:28;34.90;;;6.32;;
64543;SDS011;50936;51.660;5.616;2023-02-04T04:35:55;33.72;;;6.03;;
64543;SDS011;50936;51.660;5.616;2023-02-04T04:38:22;27.60;;;5.70;;
64543;SDS011;50936;51.660;5.616;2023-02-04T04:40:49;26.73;;;4.55;;
64543;SDS011;50936;51.660;5.616;2023-02-04T04:43:16;29.40;;;5.28;;
64543;SDS011;50936;51.660;5.616;2023-02-04T04:45:42;29.20;;;6.03;;
64543;SDS011;50936;51.660;5.616;2023-02-04T04:48:09;22.83;;;5.20;;
64543;SDS011;50936;51.660;5.616;2023-02-04T04:50:36;23.33;;;4.80;;
64543;SDS011;50936;51.660;5.616;2023-02-04T04:53:03;30.10;;;5.13;;
64543;SDS011;50936;51.660;5.616;2023-02-04T04:55:30;21.00;;;4.78;;
64543;SDS011;50936;51.660;5.616;2023-02-04T04:57:58;34.72;;;4.97;;
64543;SDS011;50936;51.660;5.616;2023-02-04T05:00:24;28.23;;;5.57;;
64543;SDS011;50936;51.660;5.616;2023-02-04T05:02:51;22.80;;;5.38;;
64543;SDS011;50936;51.660;5.616;2023-02-04T05:05:18;27.73;;;5.50;;
64543;SDS011;50936;51.660;5.616;2023-02-04T05:07:45;25.20;;;4.47;;
64543;SDS011;50936;51.660;5.616;2023-02-04T05:10:12;24.02;;;5.53;;
64543;SDS011;50936;51.660;5.616;2023-02-04T05:12:39;27.15;;;5.03;;
64543;SDS011;50936;51.660;5.616;2023-02-04T05:15:06;26.10;;;4.82;;
64543;SDS011;50936;51.660;5.616;2023-02-04T05:17:33;37.28;;;5.35;;
64543;SDS011;50936;51.660;5.616;2023-02-04T05:20:00;23.23;;;4.68;;
64543;SDS011;50936;51.660;5.616;2023-02-04T05:22:27;35.10;;;5.97;;
64543;SDS011;50936;51.660;5.616;2023-02-04T05:24:54;25.02;;;5.45;;
64543;SDS011;50936;51.660;5.616;2023-02-04T05:27:21;25.05;;;5.22;;
64543;SDS011;50936;51.660;5.616;2023-02-04T05:29:47;23.13;;;4.47;;
64543;SDS011;50936;51.660;5.616;2023-02-04T05:32:14;10.60;;;2.97;;
64543;SDS011;50936;51.660;5.616;2023-02-04T05:34:41;23.00;;;3.70;;
64543;SDS011;50936;51.660;5.616;2023-02-04T05:37:08;20.92;;;3.55;;
64543;SDS011;50936;51.660;5.616;2023-02-04T05:39:35;20.42;;;4.95;;
64543;SDS011;50936;51.660;5.616;2023-02-04T05:42:02;18.35;;;4.20;;
64543;SDS011;50936;51.660;5.616;2023-02-04T05:44:29;23.95;;;5.80;;
64543;SDS011;50936;51.660;5.616;2023-02-04T05:46:56;21.27;;;6.10;;
64543;SDS011;50936;51.660;5.616;2023-02-04T05:49:22;27.05;;;5.60;;
64543;SDS011;50936;51.660;5.616;2023-02-04T05:51:50;10.80;;;3.17;;
64543;SDS011;50936;51.660;5.616;2023-02-04T05:54:17;38.95;;;6.68;;
64543;SDS011;50936;51.660;5.616;2023-02-04T05:56:46;43.30;;;8.15;;
64543;SDS011;50936;51.660;5.616;2023-02-04T05:59:13;47.25;;;8.00;;
64543;SDS011;50936;51.660;5.616;2023-02-04T06:01:40;33.92;;;6.70;;
64543;SDS011;50936;51.660;5.616;2023-02-04T06:04:07;36.72;;;7.32;;
64543;SDS011;50936;51.660;5.616;2023-02-04T06:06:34;36.55;;;7.07;;
64543;SDS011;50936;51.660;5.616;2023-02-04T06:09:01;37.40;;;7.68;;
64543;SDS011;50936;51.660;5.616;2023-02-04T06:11:28;26.65;;;6.07;;
64543;SDS011;50936;51.660;5.616;2023-02-04T06:13:55;15.95;;;4.35;;
64543;SDS011;50936;51.660;5.616;2023-02-04T06:16:22;28.60;;;5.03;;
64543;SDS011;50936;51.660;5.616;2023-02-04T06:18:49;31.95;;;6.35;;
64543;SDS011;50936;51.660;5.616;2023-02-04T06:21:16;26.23;;;5.22;;
64543;SDS011;50936;51.660;5.616;2023-02-04T06:23:43;44.28;;;7.70;;
64543;SDS011;50936;51.660;5.616;2023-02-04T06:26:10;36.05;;;8.02;;
64543;SDS011;50936;51.660;5.616;2023-02-04T06:28:37;45.67;;;9.70;;
64543;SDS011;50936;51.660;5.616;2023-02-04T06:31:04;42.30;;;9.27;;
64543;SDS011;50936;51.660;5.616;2023-02-04T06:33:31;33.67;;;8.48;;
64543;SDS011;50936;51.660;5.616;2023-02-04T06:35:58;31.73;;;8.40;;
64543;SDS011;50936;51.660;5.616;2023-02-04T06:38:25;30.88;;;7.63;;
64543;SDS011;50936;51.660;5.616;2023-02-04T06:40:52;21.60;;;6.32;;
64543;SDS011;50936;51.660;5.616;2023-02-04T06:43:19;39.88;;;9.88;;
64543;SDS011;50936;51.660;5.616;2023-02-04T06:45:47;28.25;;;7.10;;
64543;SDS011;50936;51.660;5.616;2023-02-04T06:48:16;15.48;;;5.32;;
64543;SDS011;50936;51.660;5.616;2023-02-04T06:50:44;56.72;;;9.98;;
64543;SDS011;50936;51.660;5.616;2023-02-04T06:53:11;40.28;;;8.10;;
64543;SDS011;50936;51.660;5.616;2023-02-04T06:55:38;24.35;;;6.68;;
64543;SDS011;50936;51.660;5.616;2023-02-04T06:58:04;38.50;;;9.27;;
64543;SDS011;50936;51.660;5.616;2023-02-04T07:00:31;42.10;;;10.02;;
64543;SDS011;50936;51.660;5.616;2023-02-04T07:02:59;40.67;;;9.55;;
64543;SDS011;50936;51.660;5.616;2023-02-04T07:05:26;36.13;;;8.88;;
64543;SDS011;50936;51.660;5.616;2023-02-04T07:07:53;52.22;;;11.43;;
64543;SDS011;50936;51.660;5.616;2023-02-04T07:10:20;46.33;;;11.15;;
64543;SDS011;50936;51.660;5.616;2023-02-04T07:12:47;55.80;;;11.55;;
64543;SDS011;50936;51.660;5.616;2023-02-04T07:15:14;77.45;;;11.43;;
64543;SDS011;50936;51.660;5.616;2023-02-04T07:17:42;60.55;;;11.43;;
64543;SDS011;50936;51.660;5.616;2023-02-04T07:20:10;52.22;;;10.68;;
64543;SDS011;50936;51.660;5.616;2023-02-04T07:22:37;51.72;;;10.65;;
64543;SDS011;50936;51.660;5.616;2023-02-04T07:25:05;51.33;;;11.85;;
64543;SDS011;50936;51.660;5.616;2023-02-04T07:27:32;47.95;;;10.43;;
64543;SDS011;50936;51.660;5.616;2023-02-04T07:29:59;53.17;;;9.60;;
64543;SDS011;50936;51.660;5.616;2023-02-04T07:32:26;49.22;;;11.60;;
64543;SDS011;50936;51.660;5.616;2023-02-04T07:34:59;32.78;;;10.43;;
64543;SDS011;50936;51.660;5.616;2023-02-04T07:37:26;43.17;;;9.68;;
64543;SDS011;50936;51.660;5.616;2023-02-04T07:39:52;41.70;;;11.32;;
64543;SDS011;50936;51.660;5.616;2023-02-04T07:42:19;45.53;;;10.80;;
64543;SDS011;50936;51.660;5.616;2023-02-04T07:44:52;45.83;;;10.43;;
64543;SDS011;50936;51.660;5.616;2023-02-04T07:47:19;35.60;;;9.55;;
64543;SDS011;50936;51.660;5.616;2023-02-04T07:49:46;47.58;;;11.00;;
64543;SDS011;50936;51.660;5.616;2023-02-04T07:52:13;46.50;;;10.38;;
64543;SDS011;50936;51.660;5.616;2023-02-04T07:54:40;41.95;;;11.13;;
64543;SDS011;50936;51.660;5.616;2023-02-04T07:57:07;36.35;;;11.15;;
64543;SDS011;50936;51.660;5.616;2023-02-04T07:59:34;43.38;;;11.18;;
64543;SDS011;50936;51.660;5.616;2023-02-04T08:02:01;40.60;;;11.43;;
64543;SDS011;50936;51.660;5.616;2023-02-04T08:04:28;39.90;;;10.38;;
64543;SDS011;50936;51.660;5.616;2023-02-04T08:06:55;40.17;;;10.23;;
64543;SDS011;50936;51.660;5.616;2023-02-04T08:09:22;40.90;;;11.43;;
64543;SDS011;50936;51.660;5.616;2023-02-04T08:11:49;44.50;;;11.82;;
64543;SDS011;50936;51.660;5.616;2023-02-04T08:14:16;43.00;;;11.90;;
64543;SDS011;50936;51.660;5.616;2023-02-04T08:16:43;43.50;;;12.00;;
64543;SDS011;50936;51.660;5.616;2023-02-04T08:19:10;42.95;;;11.52;;
64543;SDS011;50936;51.660;5.616;2023-02-04T08:21:36;44.35;;;12.02;;
64543;SDS011;50936;51.660;5.616;2023-02-04T08:24:03;34.03;;;11.38;;
64543;SDS011;50936;51.660;5.616;2023-02-04T08:26:31;43.03;;;12.35;;
64543;SDS011;50936;51.660;5.616;2023-02-04T08:28:57;43.28;;;10.93;;
64543;SDS011;50936;51.660;5.616;2023-02-04T08:31:25;37.03;;;11.38;;
64543;SDS011;50936;51.660;5.616;2023-02-04T08:33:52;41.45;;;11.88;;
64543;SDS011;50936;51.660;5.616;2023-02-04T08:36:19;34.97;;;10.75;;
64543;SDS011;50936;51.660;5.616;2023-02-04T08:38:45;43.38;;;12.07;;
64543;SDS011;50936;51.660;5.616;2023-02-04T08:41:13;39.25;;;11.25;;
64543;SDS011;50936;51.660;5.616;2023-02-04T08:43:40;38.78;;;11.50;;
64543;SDS011;50936;51.660;5.616;2023-02-04T08:46:07;38.78;;;11.80;;
64543;SDS011;50936;51.660;5.616;2023-02-04T08:48:33;36.65;;;11.27;;
64543;SDS011;50936;51.660;5.616;2023-02-04T08:51:00;35.05;;;11.30;;
64543;SDS011;50936;51.660;5.616;2023-02-04T08:53:27;35.35;;;11.68;;
64543;SDS011;50936;51.660;5.616;2023-02-04T08:55:54;37.45;;;11.90;;
64543;SDS011;50936;51.660;5.616;2023-02-04T08:58:21;43.20;;;12.15;;
64543;SDS011;50936;51.660;5.616;2023-02-04T09:00:48;39.63;;;11.98;;
64543;SDS011;50936;51.660;5.616;2023-02-04T09:03:15;42.50;;;12.52;;
64543;SDS011;50936;51.660;5.616;2023-02-04T09:05:42;45.20;;;13.70;;
64543;SDS011;50936;51.660;5.616;2023-02-04T09:08:09;51.58;;;14.90;;
64543;SDS011;50936;51.660;5.616;2023-02-04T09:10:36;47.03;;;14.10;;
64543;SDS011;50936;51.660;5.616;2023-02-04T09:13:02;45.13;;;12.95;;
64543;SDS011;50936;51.660;5.616;2023-02-04T09:15:30;47.08;;;12.70;;
64543;SDS011;50936;51.660;5.616;2023-02-04T09:17:56;41.65;;;11.82;;
64543;SDS011;50936;51.660;5.616;2023-02-04T09:20:37;45.50;;;13.13;;
64543;SDS011;50936;51.660;5.616;2023-02-04T09:23:04;49.03;;;13.55;;
64543;SDS011;50936;51.660;5.616;2023-02-04T09:25:34;44.15;;;13.23;;
64543;SDS011;50936;51.660;5.616;2023-02-04T09:28:01;42.90;;;11.88;;
64543;SDS011;50936;51.660;5.616;2023-02-04T09:30:28;37.80;;;12.30;;
64543;SDS011;50936;51.660;5.616;2023-02-04T09:32:55;41.63;;;12.30;;
64543;SDS011;50936;51.660;5.616;2023-02-04T09:35:22;45.97;;;12.48;;
64543;SDS011;50936;51.660;5.616;2023-02-04T09:37:49;41.97;;;11.95;;
64543;SDS011;50936;51.660;5.616;2023-02-04T09:40:16;37.17;;;11.95;;
64543;SDS011;50936;51.660;5.616;2023-02-04T09:42:49;34.78;;;11.43;;
64543;SDS011;50936;51.660;5.616;2023-02-04T09:45:21;40.40;;;10.68;;
64543;SDS011;50936;51.660;5.616;2023-02-04T09:47:53;32.15;;;10.10;;
64543;SDS011;50936;51.660;5.616;2023-02-04T09:50:25;34.40;;;11.23;;
64543;SDS011;50936;51.660;5.616;2023-02-04T09:52:54;28.52;;;9.85;;
64543;SDS011;50936;51.660;5.616;2023-02-04T09:55:28;31.23;;;10.57;;
64543;SDS011;50936;51.660;5.616;2023-02-04T09:57:59;36.50;;;10.02;;
64543;SDS011;50936;51.660;5.616;2023-02-04T10:00:27;35.90;;;10.20;;
64543;SDS011;50936;51.660;5.616;2023-02-04T10:02:57;31.15;;;9.88;;
64543;SDS011;50936;51.660;5.616;2023-02-04T10:05:29;35.55;;;10.18;;
64543;SDS011;50936;51.660;5.616;2023-02-04T10:07:58;32.97;;;10.52;;
64543;SDS011;50936;51.660;5.616;2023-02-04T10:10:26;36.33;;;9.43;;
64543;SDS011;50936;51.660;5.616;2023-02-04T10:12:55;32.85;;;10.00;;
64543;SDS011;50936;51.660;5.616;2023-02-04T10:15:27;34.47;;;9.98;;
64543;SDS011;50936;51.660;5.616;2023-02-04T10:17:57;41.15;;;10.35;;
64543;SDS011;50936;51.660;5.616;2023-02-04T10:20:28;32.03;;;9.88;;
64543;SDS011;50936;51.660;5.616;2023-02-04T10:22:56;37.72;;;11.40;;
64543;SDS011;50936;51.660;5.616;2023-02-04T10:25:23;29.67;;;9.25;;
64543;SDS011;50936;51.660;5.616;2023-02-04T10:27:58;36.00;;;10.07;;
64543;SDS011;50936;51.660;5.616;2023-02-04T10:30:27;37.05;;;8.77;;
64543;SDS011;50936;51.660;5.616;2023-02-04T10:33:14;31.02;;;9.30;;
64543;SDS011;50936;51.660;5.616;2023-02-04T10:35:52;24.80;;;7.18;;
64543;SDS011;50936;51.660;5.616;2023-02-04T10:38:22;23.48;;;6.60;;
64543;SDS011;50936;51.660;5.616;2023-02-04T10:40:59;23.52;;;6.38;;
64543;SDS011;50936;51.660;5.616;2023-02-04T10:43:31;31.67;;;6.75;;
64543;SDS011;50936;51.660;5.616;2023-02-04T10:46:00;24.00;;;5.57;;
64543;SDS011;50936;51.660;5.616;2023-02-04T10:48:29;29.75;;;7.45;;
64543;SDS011;50936;51.660;5.616;2023-02-04T10:51:08;22.13;;;5.65;;
64543;SDS011;50936;51.660;5.616;2023-02-04T10:53:38;24.27;;;5.63;;
64543;SDS011;50936;51.660;5.616;2023-02-04T10:56:24;32.97;;;8.07;;
64543;SDS011;50936;51.660;5.616;2023-02-04T10:58:50;37.40;;;7.15;;
64543;SDS011;50936;51.660;5.616;2023-02-04T11:01:17;26.63;;;6.72;;
64543;SDS011;50936;51.660;5.616;2023-02-04T11:03:44;30.77;;;6.82;;
64543;SDS011;50936;51.660;5.616;2023-02-04T11:06:19;26.05;;;6.53;;
64543;SDS011;50936;51.660;5.616;2023-02-04T11:08:49;24.48;;;5.60;;
64543;SDS011;50936;51.660;5.616;2023-02-04T11:11:20;27.05;;;6.57;;
64543;SDS011;50936;51.660;5.616;2023-02-04T11:18:59;22.08;;;6.18;;
64543;SDS011;50936;51.660;5.616;2023-02-04T11:24:05;23.05;;;6.25;;
64543;SDS011;50936;51.660;5.616;2023-02-04T11:26:42;21.35;;;5.30;;
64543;SDS011;50936;51.660;5.616;2023-02-04T11:29:27;29.60;;;6.95;;
64543;SDS011;50936;51.660;5.616;2023-02-04T11:35:05;22.63;;;5.50;;
64543;SDS011;50936;51.660;5.616;2023-02-04T11:37:39;31.83;;;7.30;;
64543;SDS011;50936;51.660;5.616;2023-02-04T11:40:28;27.08;;;5.63;;
64543;SDS011;50936;51.660;5.616;2023-02-04T11:43:14;32.35;;;6.68;;
64543;SDS011;50936;51.660;5.616;2023-02-04T11:45:42;23.60;;;5.88;;
64543;SDS011;50936;51.660;5.616;2023-02-04T11:48:19;30.23;;;5.10;;
64543;SDS011;50936;51.660;5.616;2023-02-04T11:50:56;21.85;;;5.57;;
64543;SDS011;50936;51.660;5.616;2023-02-04T11:53:29;21.75;;;5.35;;
64543;SDS011;50936;51.660;5.616;2023-02-04T11:55:58;23.95;;;5.68;;
64543;SDS011;50936;51.660;5.616;2023-02-04T11:58:27;26.67;;;5.80;;
64543;SDS011;50936;51.660;5.616;2023-02-04T12:00:56;20.85;;;5.38;;
64543;SDS011;50936;51.660;5.616;2023-02-04T12:03:24;22.17;;;5.40;;
64543;SDS011;50936;51.660;5.616;2023-02-04T12:05:56;23.75;;;5.85;;
64543;SDS011;50936;51.660;5.616;2023-02-04T12:08:26;25.50;;;5.50;;
64543;SDS011;50936;51.660;5.616;2023-02-04T12:11:21;30.45;;;5.93;;
64543;SDS011;50936;51.660;5.616;2023-02-04T12:13:53;22.90;;;5.72;;
64543;SDS011;50936;51.660;5.616;2023-02-04T12:16:22;23.17;;;5.45;;
64543;SDS011;50936;51.660;5.616;2023-02-04T12:18:50;25.00;;;4.93;;
64543;SDS011;50936;51.660;5.616;2023-02-04T12:21:17;27.60;;;5.22;;
64543;SDS011;50936;51.660;5.616;2023-02-04T12:23:45;30.88;;;5.13;;
64543;SDS011;50936;51.660;5.616;2023-02-04T12:26:12;20.65;;;4.35;;
64543;SDS011;50936;51.660;5.616;2023-02-04T12:28:39;25.30;;;5.32;;
64543;SDS011;50936;51.660;5.616;2023-02-04T12:31:06;22.77;;;5.05;;
64543;SDS011;50936;51.660;5.616;2023-02-04T12:33:33;21.17;;;4.68;;
64543;SDS011;50936;51.660;5.616;2023-02-04T12:36:00;26.13;;;5.03;;
64543;SDS011;50936;51.660;5.616;2023-02-04T12:38:26;22.08;;;5.25;;
64543;SDS011;50936;51.660;5.616;2023-02-04T12:40:53;18.77;;;5.68;;
64543;SDS011;50936;51.660;5.616;2023-02-04T12:43:20;18.75;;;4.80;;
64543;SDS011;50936;51.660;5.616;2023-02-04T12:45:47;21.23;;;3.97;;
64543;SDS011;50936;51.660;5.616;2023-02-04T12:48:15;21.33;;;4.00;;
64543;SDS011;50936;51.660;5.616;2023-02-04T12:50:42;22.63;;;4.32;;
64543;SDS011;50936;51.660;5.616;2023-02-04T12:53:09;23.75;;;4.90;;
64543;SDS011;50936;51.660;5.616;2023-02-04T12:55:36;17.50;;;4.75;;
64543;SDS011;50936;51.660;5.616;2023-02-04T12:58:03;27.20;;;5.43;;
64543;SDS011;50936;51.660;5.616;2023-02-04T13:00:30;18.45;;;4.43;;
64543;SDS011;50936;51.660;5.616;2023-02-04T13:02:57;18.60;;;4.80;;
64543;SDS011;50936;51.660;5.616;2023-02-04T13:05:24;15.55;;;4.32;;
64543;SDS011;50936;51.660;5.616;2023-02-04T13:07:53;18.95;;;4.25;;
64543;SDS011;50936;51.660;5.616;2023-02-04T13:10:20;22.52;;;4.68;;
64543;SDS011;50936;51.660;5.616;2023-02-04T13:12:49;21.73;;;4.85;;
64543;SDS011;50936;51.660;5.616;2023-02-04T13:15:17;18.80;;;4.75;;
64543;SDS011;50936;51.660;5.616;2023-02-04T13:17:45;21.58;;;4.70;;
64543;SDS011;50936;51.660;5.616;2023-02-04T13:20:11;20.90;;;4.80;;
64543;SDS011;50936;51.660;5.616;2023-02-04T13:22:39;19.08;;;4.38;;
64543;SDS011;50936;51.660;5.616;2023-02-04T13:25:06;23.92;;;4.78;;
64543;SDS011;50936;51.660;5.616;2023-02-04T13:27:34;19.58;;;4.43;;
64543;SDS011;50936;51.660;5.616;2023-02-04T13:30:02;24.73;;;4.57;;
64543;SDS011;50936;51.660;5.616;2023-02-04T13:32:31;15.48;;;4.00;;
64543;SDS011;50936;51.660;5.616;2023-02-04T13:34:58;22.45;;;4.45;;
64543;SDS011;50936;51.660;5.616;2023-02-04T13:37:25;19.60;;;4.53;;
64543;SDS011;50936;51.660;5.616;2023-02-04T13:39:52;22.00;;;4.50;;
64543;SDS011;50936;51.660;5.616;2023-02-04T13:42:19;19.15;;;4.35;;
64543;SDS011;50936;51.660;5.616;2023-02-04T13:44:46;18.17;;;4.38;;
64543;SDS011;50936;51.660;5.616;2023-02-04T13:47:13;24.08;;;4.45;;
64543;SDS011;50936;51.660;5.616;2023-02-04T13:49:40;20.50;;;4.47;;
64543;SDS011;50936;51.660;5.616;2023-02-04T13:52:07;18.98;;;4.47;;
64543;SDS011;50936;51.660;5.616;2023-02-04T13:54:34;20.17;;;4.47;;
64543;SDS011;50936;51.660;5.616;2023-02-04T13:57:02;19.23;;;4.35;;
64543;SDS011;50936;51.660;5.616;2023-02-04T13:59:29;17.00;;;4.35;;
64543;SDS011;50936;51.660;5.616;2023-02-04T14:01:56;17.63;;;4.35;;
64543;SDS011;50936;51.660;5.616;2023-02-04T14:04:23;20.92;;;4.93;;
64543;SDS011;50936;51.660;5.616;2023-02-04T14:06:52;15.75;;;4.95;;
64543;SDS011;50936;51.660;5.616;2023-02-04T14:09:20;17.92;;;4.35;;
64543;SDS011;50936;51.660;5.616;2023-02-04T14:11:49;18.10;;;4.43;;
64543;SDS011;50936;51.660;5.616;2023-02-04T14:14:17;16.13;;;4.80;;
64543;SDS011;50936;51.660;5.616;2023-02-04T14:16:44;26.80;;;5.30;;
64543;SDS011;50936;51.660;5.616;2023-02-04T14:19:10;20.70;;;4.50;;
64543;SDS011;50936;51.660;5.616;2023-02-04T14:21:38;26.77;;;4.82;;
64543;SDS011;50936;51.660;5.616;2023-02-04T14:24:05;19.70;;;4.35;;
64543;SDS011;50936;51.660;5.616;2023-02-04T14:26:32;20.73;;;4.10;;
64543;SDS011;50936;51.660;5.616;2023-02-04T14:28:59;18.65;;;5.30;;
64543;SDS011;50936;51.660;5.616;2023-02-04T14:31:26;22.38;;;5.95;;
64543;SDS011;50936;51.660;5.616;2023-02-04T14:33:53;25.23;;;5.07;;
64543;SDS011;50936;51.660;5.616;2023-02-04T14:36:21;24.80;;;4.80;;
64543;SDS011;50936;51.660;5.616;2023-02-04T14:38:48;28.60;;;5.43;;
64543;SDS011;50936;51.660;5.616;2023-02-04T14:41:15;17.85;;;5.80;;
64543;SDS011;50936;51.660;5.616;2023-02-04T14:43:45;22.95;;;6.15;;
64543;SDS011;50936;51.660;5.616;2023-02-04T14:46:12;24.08;;;6.35;;
64543;SDS011;50936;51.660;5.616;2023-02-04T14:48:39;22.92;;;5.13;;